sensor_id;sensor_type;location;lat;lon;timestamp;temperature;humidity
25554;DHT22;13446;50.926;5.332;2023-04-15T00:01:01;10.60;99.90
25554;DHT22;13446;50.926;5.332;2023-04-15T00:03:27;10.50;99.90
25554;DHT22;13446;50.926;5.332;2023-04-15T00:05:53;10.30;99.90
25554;DHT22;13446;50.926;5.332;2023-04-15T00:08:19;10.30;99.90
25554;DHT22;13446;50.926;5.332;2023-04-15T00:10:44;10.30;99.90
25554;DHT22;13446;50.926;5.332;2023-04-15T00:13:11;10.30;99.90
25554;DHT22;13446;50.926;5.332;2023-04-15T00:15:36;10.20;99.90
25554;DHT22;13446;50.926;5.332;2023-04-15T00:18:02;10.30;99.90
25554;DHT22;13446;50.926;5.332;2023-04-15T00:20:28;10.20;99.90
25554;DHT22;13446;50.926;5.332;2023-04-15T00:22:54;10.30;99.90
25554;DHT22;13446;50.926;5.332;2023-04-15T00:25:20;10.40;99.90
25554;DHT22;13446;50.926;5.332;2023-04-15T00:27:45;10.30;99.90
25554;DHT22;13446;50.926;5.332;2023-04-15T00:30:11;10.20;99.90
25554;DHT22;13446;50.926;5.332;2023-04-15T00:32:36;10.40;99.90
25554;DHT22;13446;50.926;5.332;2023-04-15T00:35:02;10.40;99.90
25554;DHT22;13446;50.926;5.332;2023-04-15T00:37:28;10.40;99.90
25554;DHT22;13446;50.926;5.332;2023-04-15T00:39:53;10.30;99.90
25554;DHT22;13446;50.926;5.332;2023-04-15T00:42:19;10.40;99.90
25554;DHT22;13446;50.926;5.332;2023-04-15T00:44:46;10.40;99.90
25554;DHT22;13446;50.926;5.332;2023-04-15T00:47:11;10.30;99.90
25554;DHT22;13446;50.926;5.332;2023-04-15T00:49:37;10.30;99.90
25554;DHT22;13446;50.926;5.332;2023-04-15T00:52:03;10.20;99.90
25554;DHT22;13446;50.926;5.332;2023-04-15T00:54:29;10.20;99.90
25554;DHT22;13446;50.926;5.332;2023-04-15T00:56:54;10.30;99.90
25554;DHT22;13446;50.926;5.332;2023-04-15T00:59:20;10.30;99.90
25554;DHT22;13446;50.926;5.332;2023-04-15T01:01:46;10.40;99.90
25554;DHT22;13446;50.926;5.332;2023-04-15T01:04:11;10.50;99.90
25554;DHT22;13446;50.926;5.332;2023-04-15T01:06:37;10.40;99.90
25554;DHT22;13446;50.926;5.332;2023-04-15T01:09:03;10.40;99.90
25554;DHT22;13446;50.926;5.332;2023-04-15T01:11:28;10.50;99.90
25554;DHT22;13446;50.926;5.332;2023-04-15T01:13:55;10.40;99.90
25554;DHT22;13446;50.926;5.332;2023-04-15T01:16:21;10.40;99.90
25554;DHT22;13446;50.926;5.332;2023-04-15T01:18:47;10.40;99.90
25554;DHT22;13446;50.926;5.332;2023-04-15T01:21:13;10.50;99.90
25554;DHT22;13446;50.926;5.332;2023-04-15T01:23:39;10.30;99.90
25554;DHT22;13446;50.926;5.332;2023-04-15T01:26:05;10.30;99.90
25554;DHT22;13446;50.926;5.332;2023-04-15T01:28:32;10.30;99.90
25554;DHT22;13446;50.926;5.332;2023-04-15T01:31:07;10.10;99.90
25554;DHT22;13446;50.926;5.332;2023-04-15T01:33:33;10.20;99.90
25554;DHT22;13446;50.926;5.332;2023-04-15T01:35:58;10.40;99.90
25554;DHT22;13446;50.926;5.332;2023-04-15T01:38:25;10.30;99.90
25554;DHT22;13446;50.926;5.332;2023-04-15T01:40:51;10.40;99.90
25554;DHT22;13446;50.926;5.332;2023-04-15T01:43:17;10.40;99.90
25554;DHT22;13446;50.926;5.332;2023-04-15T01:45:43;10.40;99.90
25554;DHT22;13446;50.926;5.332;2023-04-15T01:48:08;10.50;99.90
25554;DHT22;13446;50.926;5.332;2023-04-15T01:50:34;10.40;99.90
25554;DHT22;13446;50.926;5.332;2023-04-15T01:53:01;10.40;99.90
25554;DHT22;13446;50.926;5.332;2023-04-15T01:55:26;10.40;99.90
25554;DHT22;13446;50.926;5.332;2023-04-15T01:57:52;10.20;99.90
25554;DHT22;13446;50.926;5.332;2023-04-15T02:00:17;10.40;99.90
25554;DHT22;13446;50.926;5.332;2023-04-15T02:02:43;10.40;99.90
25554;DHT22;13446;50.926;5.332;2023-04-15T02:05:08;10.50;99.90
25554;DHT22;13446;50.926;5.332;2023-04-15T02:07:35;10.50;99.90
25554;DHT22;13446;50.926;5.332;2023-04-15T02:10:01;10.60;99.90
25554;DHT22;13446;50.926;5.332;2023-04-15T02:12:28;10.60;99.90
25554;DHT22;13446;50.926;5.332;2023-04-15T02:14:53;10.60;99.90
25554;DHT22;13446;50.926;5.332;2023-04-15T02:17:20;10.70;99.90
25554;DHT22;13446;50.926;5.332;2023-04-15T02:19:45;10.70;99.90
25554;DHT22;13446;50.926;5.332;2023-04-15T02:22:12;10.60;99.90
25554;DHT22;13446;50.926;5.332;2023-04-15T02:24:42;10.60;99.90
25554;DHT22;13446;50.926;5.332;2023-04-15T02:27:08;10.40;99.90
25554;DHT22;13446;50.926;5.332;2023-04-15T02:29:33;10.20;99.90
25554;DHT22;13446;50.926;5.332;2023-04-15T02:31:59;10.30;99.90
25554;DHT22;13446;50.926;5.332;2023-04-15T02:34:25;10.50;99.90
25554;DHT22;13446;50.926;5.332;2023-04-15T02:36:51;10.40;99.90
25554;DHT22;13446;50.926;5.332;2023-04-15T02:39:21;10.40;99.90
25554;DHT22;13446;50.926;5.332;2023-04-15T02:41:47;10.50;99.90
25554;DHT22;13446;50.926;5.332;2023-04-15T02:44:16;10.60;99.90
25554;DHT22;13446;50.926;5.332;2023-04-15T02:46:44;10.50;99.90
25554;DHT22;13446;50.926;5.332;2023-04-15T02:49:15;10.50;99.90
25554;DHT22;13446;50.926;5.332;2023-04-15T02:51:40;10.60;99.90
25554;DHT22;13446;50.926;5.332;2023-04-15T02:54:06;10.50;99.90
25554;DHT22;13446;50.926;5.332;2023-04-15T02:56:33;10.70;99.90
25554;DHT22;13446;50.926;5.332;2023-04-15T02:58:58;10.80;99.90
25554;DHT22;13446;50.926;5.332;2023-04-15T03:01:24;10.70;99.90
25554;DHT22;13446;50.926;5.332;2023-04-15T03:03:50;10.80;99.90
25554;DHT22;13446;50.926;5.332;2023-04-15T03:06:15;10.70;99.90
25554;DHT22;13446;50.926;5.332;2023-04-15T03:08:41;10.70;99.90
25554;DHT22;13446;50.926;5.332;2023-04-15T03:11:07;10.70;99.90
25554;DHT22;13446;50.926;5.332;2023-04-15T03:13:32;10.70;99.90
25554;DHT22;13446;50.926;5.332;2023-04-15T03:15:58;10.60;99.90
25554;DHT22;13446;50.926;5.332;2023-04-15T03:18:23;10.50;99.90
25554;DHT22;13446;50.926;5.332;2023-04-15T03:20:49;10.40;99.90
25554;DHT22;13446;50.926;5.332;2023-04-15T03:23:14;10.40;99.90
25554;DHT22;13446;50.926;5.332;2023-04-15T03:25:40;10.50;99.90
25554;DHT22;13446;50.926;5.332;2023-04-15T03:28:06;10.50;99.90
25554;DHT22;13446;50.926;5.332;2023-04-15T03:30:31;10.50;99.90
25554;DHT22;13446;50.926;5.332;2023-04-15T03:32:57;10.40;99.90
25554;DHT22;13446;50.926;5.332;2023-04-15T03:35:22;10.50;99.90
25554;DHT22;13446;50.926;5.332;2023-04-15T03:37:48;10.70;99.90
25554;DHT22;13446;50.926;5.332;2023-04-15T03:40:14;10.70;99.90
25554;DHT22;13446;50.926;5.332;2023-04-15T03:42:39;10.80;99.90
25554;DHT22;13446;50.926;5.332;2023-04-15T03:45:05;10.80;99.90
25554;DHT22;13446;50.926;5.332;2023-04-15T03:47:32;10.70;99.90
25554;DHT22;13446;50.926;5.332;2023-04-15T03:49:57;10.70;99.90
25554;DHT22;13446;50.926;5.332;2023-04-15T03:52:23;10.70;99.90
25554;DHT22;13446;50.926;5.332;2023-04-15T03:54:48;10.70;99.90
25554;DHT22;13446;50.926;5.332;2023-04-15T03:57:14;10.70;99.90
25554;DHT22;13446;50.926;5.332;2023-04-15T03:59:39;10.80;99.90
25554;DHT22;13446;50.926;5.332;2023-04-15T04:02:05;10.80;99.90
25554;DHT22;13446;50.926;5.332;2023-04-15T04:04:31;10.60;99.90
25554;DHT22;13446;50.926;5.332;2023-04-15T04:06:56;10.50;99.90
25554;DHT22;13446;50.926;5.332;2023-04-15T04:09:22;10.60;99.90
25554;DHT22;13446;50.926;5.332;2023-04-15T04:11:47;10.70;99.90
25554;DHT22;13446;50.926;5.332;2023-04-15T04:14:13;10.70;99.90
25554;DHT22;13446;50.926;5.332;2023-04-15T04:16:39;10.70;99.90
25554;DHT22;13446;50.926;5.332;2023-04-15T04:19:04;10.60;99.90
25554;DHT22;13446;50.926;5.332;2023-04-15T04:21:30;10.60;99.90
25554;DHT22;13446;50.926;5.332;2023-04-15T04:23:58;10.60;99.90
25554;DHT22;13446;50.926;5.332;2023-04-15T04:26:24;10.70;99.90
25554;DHT22;13446;50.926;5.332;2023-04-15T04:28:49;10.70;99.90
25554;DHT22;13446;50.926;5.332;2023-04-15T04:31:15;10.80;99.90
25554;DHT22;13446;50.926;5.332;2023-04-15T04:33:41;10.90;99.90
25554;DHT22;13446;50.926;5.332;2023-04-15T04:36:06;10.80;99.90
25554;DHT22;13446;50.926;5.332;2023-04-15T04:38:32;10.60;99.90
25554;DHT22;13446;50.926;5.332;2023-04-15T04:40:57;10.60;99.90
25554;DHT22;13446;50.926;5.332;2023-04-15T04:43:23;10.60;99.90
25554;DHT22;13446;50.926;5.332;2023-04-15T04:45:49;10.50;99.90
25554;DHT22;13446;50.926;5.332;2023-04-15T04:48:14;10.70;99.90
25554;DHT22;13446;50.926;5.332;2023-04-15T04:50:40;10.70;99.90
25554;DHT22;13446;50.926;5.332;2023-04-15T04:53:06;10.70;99.90
25554;DHT22;13446;50.926;5.332;2023-04-15T04:55:31;10.60;99.90
25554;DHT22;13446;50.926;5.332;2023-04-15T04:57:57;10.60;99.90
25554;DHT22;13446;50.926;5.332;2023-04-15T05:00:22;10.60;99.90
25554;DHT22;13446;50.926;5.332;2023-04-15T05:02:48;10.60;99.90
25554;DHT22;13446;50.926;5.332;2023-04-15T05:05:14;10.50;99.90
25554;DHT22;13446;50.926;5.332;2023-04-15T05:07:40;10.30;99.90
25554;DHT22;13446;50.926;5.332;2023-04-15T05:10:06;10.30;99.90
25554;DHT22;13446;50.926;5.332;2023-04-15T05:12:32;10.50;99.90
25554;DHT22;13446;50.926;5.332;2023-04-15T05:14:58;10.50;99.90
25554;DHT22;13446;50.926;5.332;2023-04-15T05:17:24;10.50;99.90
25554;DHT22;13446;50.926;5.332;2023-04-15T05:19:49;10.50;99.90
25554;DHT22;13446;50.926;5.332;2023-04-15T05:22:15;10.60;99.90
25554;DHT22;13446;50.926;5.332;2023-04-15T05:24:40;10.60;99.90
25554;DHT22;13446;50.926;5.332;2023-04-15T05:27:06;10.60;99.90
25554;DHT22;13446;50.926;5.332;2023-04-15T05:29:33;10.80;99.90
25554;DHT22;13446;50.926;5.332;2023-04-15T05:31:58;10.70;99.90
25554;DHT22;13446;50.926;5.332;2023-04-15T05:34:24;10.60;99.90
25554;DHT22;13446;50.926;5.332;2023-04-15T05:36:49;10.60;99.90
25554;DHT22;13446;50.926;5.332;2023-04-15T05:39:15;10.70;99.90
25554;DHT22;13446;50.926;5.332;2023-04-15T05:41:40;10.70;99.90
25554;DHT22;13446;50.926;5.332;2023-04-15T05:44:06;10.70;99.90
25554;DHT22;13446;50.926;5.332;2023-04-15T05:46:31;10.60;99.90
25554;DHT22;13446;50.926;5.332;2023-04-15T05:48:57;10.70;99.90
25554;DHT22;13446;50.926;5.332;2023-04-15T05:51:22;10.80;99.90
25554;DHT22;13446;50.926;5.332;2023-04-15T05:53:48;10.80;99.90
25554;DHT22;13446;50.926;5.332;2023-04-15T05:56:13;10.80;99.90
25554;DHT22;13446;50.926;5.332;2023-04-15T05:58:39;10.90;99.90
25554;DHT22;13446;50.926;5.332;2023-04-15T06:01:05;11.00;99.90
25554;DHT22;13446;50.926;5.332;2023-04-15T06:03:31;11.10;99.90
25554;DHT22;13446;50.926;5.332;2023-04-15T06:05:57;11.00;99.90
25554;DHT22;13446;50.926;5.332;2023-04-15T06:08:23;11.00;99.90
25554;DHT22;13446;50.926;5.332;2023-04-15T06:10:48;11.00;99.90
25554;DHT22;13446;50.926;5.332;2023-04-15T06:13:14;10.90;99.90
25554;DHT22;13446;50.926;5.332;2023-04-15T06:15:41;11.10;99.90
25554;DHT22;13446;50.926;5.332;2023-04-15T06:18:07;11.10;99.90
25554;DHT22;13446;50.926;5.332;2023-04-15T06:20:32;11.30;99.90
25554;DHT22;13446;50.926;5.332;2023-04-15T06:23:07;11.30;99.90
25554;DHT22;13446;50.926;5.332;2023-04-15T06:25:32;11.50;99.90
25554;DHT22;13446;50.926;5.332;2023-04-15T06:27:58;11.60;99.90
25554;DHT22;13446;50.926;5.332;2023-04-15T06:30:23;11.70;99.90
25554;DHT22;13446;50.926;5.332;2023-04-15T06:32:49;11.80;99.90
25554;DHT22;13446;50.926;5.332;2023-04-15T06:35:15;11.90;99.90
25554;DHT22;13446;50.926;5.332;2023-04-15T06:37:40;12.00;99.90
25554;DHT22;13446;50.926;5.332;2023-04-15T06:40:06;12.30;99.90
25554;DHT22;13446;50.926;5.332;2023-04-15T06:42:33;12.70;99.90
25554;DHT22;13446;50.926;5.332;2023-04-15T06:44:59;13.20;99.90
25554;DHT22;13446;50.926;5.332;2023-04-15T06:47:25;13.70;99.90
25554;DHT22;13446;50.926;5.332;2023-04-15T06:49:50;14.30;99.90
25554;DHT22;13446;50.926;5.332;2023-04-15T06:52:16;14.60;99.90
25554;DHT22;13446;50.926;5.332;2023-04-15T06:54:42;15.00;99.90
25554;DHT22;13446;50.926;5.332;2023-04-15T06:57:07;15.90;99.90
25554;DHT22;13446;50.926;5.332;2023-04-15T06:59:34;17.00;98.80
25554;DHT22;13446;50.926;5.332;2023-04-15T07:01:59;18.20;94.80
25554;DHT22;13446;50.926;5.332;2023-04-15T07:04:25;19.10;90.60
25554;DHT22;13446;50.926;5.332;2023-04-15T07:06:52;20.20;84.40
25554;DHT22;13446;50.926;5.332;2023-04-15T07:09:18;21.20;72.40
25554;DHT22;13446;50.926;5.332;2023-04-15T07:11:44;22.30;66.40
25554;DHT22;13446;50.926;5.332;2023-04-15T07:14:09;21.50;60.60
25554;DHT22;13446;50.926;5.332;2023-04-15T07:16:35;22.40;57.40
25554;DHT22;13446;50.926;5.332;2023-04-15T07:19:02;22.60;55.80
25554;DHT22;13446;50.926;5.332;2023-04-15T07:21:27;22.60;55.20
25554;DHT22;13446;50.926;5.332;2023-04-15T07:23:53;22.50;53.50
25554;DHT22;13446;50.926;5.332;2023-04-15T07:26:19;22.90;52.30
25554;DHT22;13446;50.926;5.332;2023-04-15T07:28:45;22.70;51.90
25554;DHT22;13446;50.926;5.332;2023-04-15T07:31:11;22.90;50.30
25554;DHT22;13446;50.926;5.332;2023-04-15T07:33:37;23.40;51.30
25554;DHT22;13446;50.926;5.332;2023-04-15T07:36:03;23.70;50.10
25554;DHT22;13446;50.926;5.332;2023-04-15T07:38:28;24.20;48.30
25554;DHT22;13446;50.926;5.332;2023-04-15T07:40:54;24.60;46.50
25554;DHT22;13446;50.926;5.332;2023-04-15T07:43:19;25.40;46.30
25554;DHT22;13446;50.926;5.332;2023-04-15T07:45:46;25.90;44.10
25554;DHT22;13446;50.926;5.332;2023-04-15T07:48:11;26.20;44.40
25554;DHT22;13446;50.926;5.332;2023-04-15T07:50:37;27.10;42.50
25554;DHT22;13446;50.926;5.332;2023-04-15T07:53:03;26.90;41.40
25554;DHT22;13446;50.926;5.332;2023-04-15T07:55:28;26.50;41.40
25554;DHT22;13446;50.926;5.332;2023-04-15T07:57:54;27.00;40.80
25554;DHT22;13446;50.926;5.332;2023-04-15T08:00:20;27.20;40.10
25554;DHT22;13446;50.926;5.332;2023-04-15T08:02:46;27.20;39.20
25554;DHT22;13446;50.926;5.332;2023-04-15T08:05:12;27.50;39.70
25554;DHT22;13446;50.926;5.332;2023-04-15T08:07:38;26.40;39.90
25554;DHT22;13446;50.926;5.332;2023-04-15T08:10:04;26.10;41.40
25554;DHT22;13446;50.926;5.332;2023-04-15T08:12:29;27.00;40.10
25554;DHT22;13446;50.926;5.332;2023-04-15T08:14:55;26.20;41.10
25554;DHT22;13446;50.926;5.332;2023-04-15T08:17:22;26.40;40.00
25554;DHT22;13446;50.926;5.332;2023-04-15T08:19:47;26.20;41.10
25554;DHT22;13446;50.926;5.332;2023-04-15T08:22:13;26.30;41.00
25554;DHT22;13446;50.926;5.332;2023-04-15T08:24:38;26.30;41.00
25554;DHT22;13446;50.926;5.332;2023-04-15T08:27:04;26.60;41.30
25554;DHT22;13446;50.926;5.332;2023-04-15T08:29:32;26.90;40.60
25554;DHT22;13446;50.926;5.332;2023-04-15T08:31:58;27.40;40.70
25554;DHT22;13446;50.926;5.332;2023-04-15T08:34:24;28.00;40.90
25554;DHT22;13446;50.926;5.332;2023-04-15T08:36:50;27.10;40.20
25554;DHT22;13446;50.926;5.332;2023-04-15T08:39:16;27.50;40.80
25554;DHT22;13446;50.926;5.332;2023-04-15T08:41:45;27.90;40.40
25554;DHT22;13446;50.926;5.332;2023-04-15T08:44:14;27.70;39.50
25554;DHT22;13446;50.926;5.332;2023-04-15T08:46:40;27.20;40.70
25554;DHT22;13446;50.926;5.332;2023-04-15T08:49:10;26.90;40.10
25554;DHT22;13446;50.926;5.332;2023-04-15T08:51:39;27.00;40.80
25554;DHT22;13446;50.926;5.332;2023-04-15T08:54:05;27.10;41.70
25554;DHT22;13446;50.926;5.332;2023-04-15T08:56:31;28.00;41.60
25554;DHT22;13446;50.926;5.332;2023-04-15T08:58:57;28.10;40.10
25554;DHT22;13446;50.926;5.332;2023-04-15T09:01:23;27.80;40.00
25554;DHT22;13446;50.926;5.332;2023-04-15T09:03:49;28.40;40.20
25554;DHT22;13446;50.926;5.332;2023-04-15T09:06:15;27.80;39.40
25554;DHT22;13446;50.926;5.332;2023-04-15T09:08:41;28.00;39.70
25554;DHT22;13446;50.926;5.332;2023-04-15T09:11:09;28.10;39.90
25554;DHT22;13446;50.926;5.332;2023-04-15T09:13:34;28.70;38.90
25554;DHT22;13446;50.926;5.332;2023-04-15T09:16:00;28.40;39.00
25554;DHT22;13446;50.926;5.332;2023-04-15T09:18:28;28.50;37.80
25554;DHT22;13446;50.926;5.332;2023-04-15T09:20:54;27.50;39.40
25554;DHT22;13446;50.926;5.332;2023-04-15T09:23:20;28.80;40.00
25554;DHT22;13446;50.926;5.332;2023-04-15T09:25:45;28.50;38.20
25554;DHT22;13446;50.926;5.332;2023-04-15T09:28:11;28.90;38.30
25554;DHT22;13446;50.926;5.332;2023-04-15T09:30:37;28.50;37.60
25554;DHT22;13446;50.926;5.332;2023-04-15T09:33:02;28.10;38.60
25554;DHT22;13446;50.926;5.332;2023-04-15T09:35:32;28.30;38.40
25554;DHT22;13446;50.926;5.332;2023-04-15T09:38:05;28.70;37.30
25554;DHT22;13446;50.926;5.332;2023-04-15T09:40:32;28.70;35.70
25554;DHT22;13446;50.926;5.332;2023-04-15T09:42:58;28.80;37.40
25554;DHT22;13446;50.926;5.332;2023-04-15T09:45:24;29.50;36.60
25554;DHT22;13446;50.926;5.332;2023-04-15T09:47:49;29.60;35.00
25554;DHT22;13446;50.926;5.332;2023-04-15T09:50:18;29.70;35.70
25554;DHT22;13446;50.926;5.332;2023-04-15T09:52:44;29.30;36.50
25554;DHT22;13446;50.926;5.332;2023-04-15T09:55:10;30.10;36.20
25554;DHT22;13446;50.926;5.332;2023-04-15T09:57:37;29.60;34.30
25554;DHT22;13446;50.926;5.332;2023-04-15T10:00:06;28.70;35.00
25554;DHT22;13446;50.926;5.332;2023-04-15T10:02:33;28.60;36.00
25554;DHT22;13446;50.926;5.332;2023-04-15T10:04:59;29.70;37.50
25554;DHT22;13446;50.926;5.332;2023-04-15T10:07:25;30.30;36.00
25554;DHT22;13446;50.926;5.332;2023-04-15T10:09:51;30.00;33.80
25554;DHT22;13446;50.926;5.332;2023-04-15T10:12:17;30.60;33.60
25554;DHT22;13446;50.926;5.332;2023-04-15T10:14:43;30.10;33.20
25554;DHT22;13446;50.926;5.332;2023-04-15T10:17:12;30.70;32.00
25554;DHT22;13446;50.926;5.332;2023-04-15T10:19:37;30.00;30.00
25554;DHT22;13446;50.926;5.332;2023-04-15T10:22:03;30.30;31.40
25554;DHT22;13446;50.926;5.332;2023-04-15T10:24:30;29.60;30.80
25554;DHT22;13446;50.926;5.332;2023-04-15T10:26:56;29.20;33.20
25554;DHT22;13446;50.926;5.332;2023-04-15T10:29:23;30.00;31.30
25554;DHT22;13446;50.926;5.332;2023-04-15T10:31:50;30.10;30.20
25554;DHT22;13446;50.926;5.332;2023-04-15T10:34:15;29.90;28.00
25554;DHT22;13446;50.926;5.332;2023-04-15T10:36:41;28.50;28.40
25554;DHT22;13446;50.926;5.332;2023-04-15T10:39:37;28.70;29.40
25554;DHT22;13446;50.926;5.332;2023-04-15T10:42:09;28.10;31.00
25554;DHT22;13446;50.926;5.332;2023-04-15T10:44:35;27.30;32.40
25554;DHT22;13446;50.926;5.332;2023-04-15T10:47:03;27.40;33.40
25554;DHT22;13446;50.926;5.332;2023-04-15T10:49:29;27.00;33.10
25554;DHT22;13446;50.926;5.332;2023-04-15T10:51:58;26.80;32.30
25554;DHT22;13446;50.926;5.332;2023-04-15T10:57:08;26.30;35.00
25554;DHT22;13446;50.926;5.332;2023-04-15T10:59:58;25.90;35.40
25554;DHT22;13446;50.926;5.332;2023-04-15T11:05:05;28.10;34.10
25554;DHT22;13446;50.926;5.332;2023-04-15T11:07:32;27.00;34.50
25554;DHT22;13446;50.926;5.332;2023-04-15T11:09:57;26.30;36.50
25554;DHT22;13446;50.926;5.332;2023-04-15T11:12:31;26.30;36.80
25554;DHT22;13446;50.926;5.332;2023-04-15T11:14:57;26.00;36.60
25554;DHT22;13446;50.926;5.332;2023-04-15T11:17:26;26.20;35.70
25554;DHT22;13446;50.926;5.332;2023-04-15T11:19:53;26.20;35.90
25554;DHT22;13446;50.926;5.332;2023-04-15T11:22:18;27.00;36.70
25554;DHT22;13446;50.926;5.332;2023-04-15T11:24:47;27.40;35.70
25554;DHT22;13446;50.926;5.332;2023-04-15T11:27:23;28.00;34.50
25554;DHT22;13446;50.926;5.332;2023-04-15T11:29:49;27.90;34.70
25554;DHT22;13446;50.926;5.332;2023-04-15T11:32:14;29.10;34.60
25554;DHT22;13446;50.926;5.332;2023-04-15T11:34:40;29.50;32.90
25554;DHT22;13446;50.926;5.332;2023-04-15T11:37:05;29.80;32.80
25554;DHT22;13446;50.926;5.332;2023-04-15T11:39:33;29.40;32.10
25554;DHT22;13446;50.926;5.332;2023-04-15T11:41:59;28.10;31.80
25554;DHT22;13446;50.926;5.332;2023-04-15T11:44:25;27.50;32.20
25554;DHT22;13446;50.926;5.332;2023-04-15T11:46:51;27.70;33.70
25554;DHT22;13446;50.926;5.332;2023-04-15T11:49:28;28.40;34.10
25554;DHT22;13446;50.926;5.332;2023-04-15T11:51:59;29.00;33.90
25554;DHT22;13446;50.926;5.332;2023-04-15T11:54:25;29.30;33.80
25554;DHT22;13446;50.926;5.332;2023-04-15T11:56:51;28.90;33.20
25554;DHT22;13446;50.926;5.332;2023-04-15T11:59:17;28.20;33.60
25554;DHT22;13446;50.926;5.332;2023-04-15T12:01:43;27.90;33.70
25554;DHT22;13446;50.926;5.332;2023-04-15T12:04:11;28.30;32.20
25554;DHT22;13446;50.926;5.332;2023-04-15T12:06:37;27.20;33.10
25554;DHT22;13446;50.926;5.332;2023-04-15T12:09:07;27.50;34.10
25554;DHT22;13446;50.926;5.332;2023-04-15T12:14:01;27.20;34.70
25554;DHT22;13446;50.926;5.332;2023-04-15T12:16:27;27.00;35.00
25554;DHT22;13446;50.926;5.332;2023-04-15T12:18:53;27.60;36.80
25554;DHT22;13446;50.926;5.332;2023-04-15T12:21:24;28.50;32.30
25554;DHT22;13446;50.926;5.332;2023-04-15T12:23:53;29.20;32.30
25554;DHT22;13446;50.926;5.332;2023-04-15T12:26:26;29.30;30.00
25554;DHT22;13446;50.926;5.332;2023-04-15T12:29:05;28.90;31.20
25554;DHT22;13446;50.926;5.332;2023-04-15T12:31:33;28.70;31.40
25554;DHT22;13446;50.926;5.332;2023-04-15T12:33:59;28.80;32.10
25554;DHT22;13446;50.926;5.332;2023-04-15T12:36:26;29.00;30.00
25554;DHT22;13446;50.926;5.332;2023-04-15T12:38:51;28.80;29.80
25554;DHT22;13446;50.926;5.332;2023-04-15T12:41:17;27.70;29.40
25554;DHT22;13446;50.926;5.332;2023-04-15T12:43:44;27.20;28.30
25554;DHT22;13446;50.926;5.332;2023-04-15T12:46:11;27.80;29.00
25554;DHT22;13446;50.926;5.332;2023-04-15T12:48:36;28.30;29.40
25554;DHT22;13446;50.926;5.332;2023-04-15T12:51:02;28.20;29.40
25554;DHT22;13446;50.926;5.332;2023-04-15T12:53:27;28.10;29.40
25554;DHT22;13446;50.926;5.332;2023-04-15T12:55:53;28.40;29.50
25554;DHT22;13446;50.926;5.332;2023-04-15T12:58:19;28.40;30.10
25554;DHT22;13446;50.926;5.332;2023-04-15T13:00:45;28.50;29.10
25554;DHT22;13446;50.926;5.332;2023-04-15T13:03:11;28.70;29.60
25554;DHT22;13446;50.926;5.332;2023-04-15T13:05:37;28.20;30.00
25554;DHT22;13446;50.926;5.332;2023-04-15T13:08:04;28.30;30.00
25554;DHT22;13446;50.926;5.332;2023-04-15T13:10:30;28.30;29.70
25554;DHT22;13446;50.926;5.332;2023-04-15T13:12:56;27.50;31.00
25554;DHT22;13446;50.926;5.332;2023-04-15T13:15:21;27.10;31.90
25554;DHT22;13446;50.926;5.332;2023-04-15T13:17:47;26.70;32.80
25554;DHT22;13446;50.926;5.332;2023-04-15T13:20:13;26.20;33.30
25554;DHT22;13446;50.926;5.332;2023-04-15T13:22:38;26.50;32.60
25554;DHT22;13446;50.926;5.332;2023-04-15T13:25:04;26.60;32.90
25554;DHT22;13446;50.926;5.332;2023-04-15T13:27:31;25.80;33.10
25554;DHT22;13446;50.926;5.332;2023-04-15T13:29:57;25.80;33.80
25554;DHT22;13446;50.926;5.332;2023-04-15T13:32:24;25.60;33.10
25554;DHT22;13446;50.926;5.332;2023-04-15T13:34:49;25.40;33.70
25554;DHT22;13446;50.926;5.332;2023-04-15T13:37:15;24.90;34.40
25554;DHT22;13446;50.926;5.332;2023-04-15T13:39:40;24.00;36.50
25554;DHT22;13446;50.926;5.332;2023-04-15T13:42:06;23.20;37.90
25554;DHT22;13446;50.926;5.332;2023-04-15T13:44:31;22.90;38.40
25554;DHT22;13446;50.926;5.332;2023-04-15T13:46:57;22.50;39.40
25554;DHT22;13446;50.926;5.332;2023-04-15T13:49:22;22.30;39.20
25554;DHT22;13446;50.926;5.332;2023-04-15T13:51:48;22.30;40.60
25554;DHT22;13446;50.926;5.332;2023-04-15T13:54:14;22.20;39.00
25554;DHT22;13446;50.926;5.332;2023-04-15T13:56:39;22.00;39.20
25554;DHT22;13446;50.926;5.332;2023-04-15T13:59:05;21.50;40.90
25554;DHT22;13446;50.926;5.332;2023-04-15T14:01:31;21.00;41.10
25554;DHT22;13446;50.926;5.332;2023-04-15T14:03:57;20.50;42.10
25554;DHT22;13446;50.926;5.332;2023-04-15T14:06:22;20.10;42.80
25554;DHT22;13446;50.926;5.332;2023-04-15T14:08:48;20.10;43.70
25554;DHT22;13446;50.926;5.332;2023-04-15T14:11:14;20.30;44.00
25554;DHT22;13446;50.926;5.332;2023-04-15T14:13:40;20.40;43.70
25554;DHT22;13446;50.926;5.332;2023-04-15T14:16:05;20.50;44.50
25554;DHT22;13446;50.926;5.332;2023-04-15T14:18:31;20.30;45.00
25554;DHT22;13446;50.926;5.332;2023-04-15T14:20:57;20.00;45.90
25554;DHT22;13446;50.926;5.332;2023-04-15T14:23:23;19.60;46.30
25554;DHT22;13446;50.926;5.332;2023-04-15T14:25:49;19.60;46.10
25554;DHT22;13446;50.926;5.332;2023-04-15T14:28:14;19.50;47.00
25554;DHT22;13446;50.926;5.332;2023-04-15T14:30:40;19.60;46.00
25554;DHT22;13446;50.926;5.332;2023-04-15T14:33:05;19.50;46.20
25554;DHT22;13446;50.926;5.332;2023-04-15T14:35:31;19.20;48.20
25554;DHT22;13446;50.926;5.332;2023-04-15T14:37:57;19.20;48.30
25554;DHT22;13446;50.926;5.332;2023-04-15T14:40:22;19.10;49.30
25554;DHT22;13446;50.926;5.332;2023-04-15T14:42:49;18.90;50.20
25554;DHT22;13446;50.926;5.332;2023-04-15T14:45:14;18.90;50.40
25554;DHT22;13446;50.926;5.332;2023-04-15T14:47:40;18.90;51.00
25554;DHT22;13446;50.926;5.332;2023-04-15T14:50:06;18.90;51.20
25554;DHT22;13446;50.926;5.332;2023-04-15T14:52:32;18.90;51.60
25554;DHT22;13446;50.926;5.332;2023-04-15T14:55:09;18.80;52.50
25554;DHT22;13446;50.926;5.332;2023-04-15T14:57:38;18.80;53.80
25554;DHT22;13446;50.926;5.332;2023-04-15T15:00:04;18.80;54.90
25554;DHT22;13446;50.926;5.332;2023-04-15T15:02:34;18.80;53.50
25554;DHT22;13446;50.926;5.332;2023-04-15T15:05:01;18.50;54.90
25554;DHT22;13446;50.926;5.332;2023-04-15T15:07:26;18.40;55.30
25554;DHT22;13446;50.926;5.332;2023-04-15T15:09:52;18.50;55.80
25554;DHT22;13446;50.926;5.332;2023-04-15T15:12:18;18.40;55.80
25554;DHT22;13446;50.926;5.332;2023-04-15T15:14:43;18.20;57.10
25554;DHT22;13446;50.926;5.332;2023-04-15T15:17:09;18.30;58.50
25554;DHT22;13446;50.926;5.332;2023-04-15T15:19:35;18.50;57.50
25554;DHT22;13446;50.926;5.332;2023-04-15T15:22:01;18.70;56.80
25554;DHT22;13446;50.926;5.332;2023-04-15T15:24:27;18.60;55.80
25554;DHT22;13446;50.926;5.332;2023-04-15T15:26:53;18.50;55.50
25554;DHT22;13446;50.926;5.332;2023-04-15T15:29:18;18.30;56.50
25554;DHT22;13446;50.926;5.332;2023-04-15T15:31:44;18.20;54.60